Time,TemperatureF,DewpointF,PressureIn,WindDirection,WindDirectionDegrees,WindSpeedMPH,WindSpeedGustMPH,Humidity,HourlyPrecipIn,Conditions,Clouds,dailyrainin,SoftwareType,DateUTC
2013-04-29 00:11:00,80.7,76.0,29.86,ENE,67,2.0,10.0,86,0.00,,,0.00,weatherlink.com 1.10,2013-04-29 04:11:00,
2013-04-29 00:26:00,80.6,77.0,29.86,ENE,62,4.0,10.0,87,0.00,,,0.00,weatherlink.com 1.10,2013-04-29 04:26:00,
2013-04-29 00:41:00,80.4,77.0,29.86,ENE,63,4.0,8.0,88,0.00,,,0.00,weatherlink.com 1.10,2013-04-29 04:41:00,
2013-04-29 00:56:00,80.4,76.0,29.85,East,82,2.0,7.0,87,0.00,,,0.00,weatherlink.com 1.10,2013-04-29 04:56:00,
2013-04-29 01:11:00,80.5,76.0,29.85,East,82,1.0,9.0,87,0.00,,,0.00,weatherlink.com 1.10,2013-04-29 05:11:00,
2013-04-29 01:26:00,80.1,76.0,29.85,ENE,75,4.0,10.0,87,0.00,,,0.00,weatherlink.com 1.10,2013-04-29 05:26:00,
2013-04-29 01:41:00,79.9,76.0,29.84,East,96,5.0,7.0,88,0.00,,,0.00,weatherlink.com 1.10,2013-04-29 05:41:00,
2013-04-29 01:56:00,79.2,75.0,29.84,NE,54,2.0,14.0,88,0.00,,,0.00,weatherlink.com 1.10,2013-04-29 05:56:00,
2013-04-29 02:11:00,77.9,76.0,29.84,ENE,61,3.0,11.0,92,0.11,,,0.11,weatherlink.com 1.10,2013-04-29 06:11:00,
2013-04-29 02:26:00,78.1,76.0,29.83,ENE,78,3.0,9.0,93,0.11,,,0.11,weatherlink.com 1.10,2013-04-29 06:26:00,
2013-04-29 02:41:00,77.6,76.0,29.83,ESE,104,2.0,9.0,93,0.11,,,0.11,weatherlink.com 1.10,2013-04-29 06:41:00,
2013-04-29 02:56:00,76.9,75.0,29.82,East,84,6.0,7.0,93,0.10,,,0.11,weatherlink.com 1.10,2013-04-29 06:56:00,
2013-04-29 03:11:00,77.2,75.0,29.82,East,81,2.0,6.0,94,0.00,,,0.11,weatherlink.com 1.10,2013-04-29 07:11:00,
2013-04-29 03:26:00,77.7,76.0,29.82,ENE,71,4.0,8.0,94,0.01,,,0.12,weatherlink.com 1.10,2013-04-29 07:26:00,
2013-04-29 03:41:00,77.8,76.0,29.81,ENE,67,3.0,8.0,94,0.01,,,0.12,weatherlink.com 1.10,2013-04-29 07:41:00,
2013-04-29 03:56:00,77.5,76.0,29.82,ENE,68,2.0,7.0,94,0.01,,,0.12,weatherlink.com 1.10,2013-04-29 07:56:00,
2013-04-29 04:11:00,77.6,76.0,29.81,ENE,65,3.0,4.0,94,0.01,,,0.12,weatherlink.com 1.10,2013-04-29 08:11:00,
2013-04-29 04:26:00,77.7,76.0,29.82,East,85,3.0,7.0,94,0.00,,,0.12,weatherlink.com 1.10,2013-04-29 08:26:00,
2013-04-29 04:41:00,77.8,76.0,29.81,ENE,71,2.0,7.0,94,0.00,,,0.12,weatherlink.com 1.10,2013-04-29 08:41:00,
2013-04-29 04:56:00,77.7,76.0,29.82,East,79,14.0,19.0,94,0.00,,,0.12,weatherlink.com 1.10,2013-04-29 08:56:00,
2013-04-29 05:11:00,76.4,75.0,29.83,East,83,6.0,11.0,94,0.00,,,0.12,weatherlink.com 1.10,2013-04-29 09:11:00,
2013-04-29 05:26:00,76.6,75.0,29.83,East,84,1.0,7.0,94,0.00,,,0.12,weatherlink.com 1.10,2013-04-29 09:26:00,
2013-04-29 05:41:00,76.6,75.0,29.83,East,90,3.0,4.0,95,0.00,,,0.12,weatherlink.com 1.10,2013-04-29 09:41:00,
2013-04-29 05:56:00,76.5,75.0,29.83,ENE,70,1.0,4.0,95,0.00,,,0.12,weatherlink.com 1.10,2013-04-29 09:56:00,
2013-04-29 06:11:00,76.8,75.0,29.83,East,92,3.0,6.0,95,0.00,,,0.12,weatherlink.com 1.10,2013-04-29 10:11:00,
2013-04-29 06:26:00,76.9,75.0,29.84,East,84,0.0,6.0,95,0.00,,,0.12,weatherlink.com 1.10,2013-04-29 10:26:00,
2013-04-29 06:41:00,77.1,76.0,29.84,ENE,78,1.0,8.0,95,0.00,,,0.12,weatherlink.com 1.10,2013-04-29 10:41:00,
2013-04-29 06:57:00,77.6,76.0,29.84,East,82,5.0,6.0,95,0.00,,,0.12,weatherlink.com 1.10,2013-04-29 10:57:00,
2013-04-29 07:12:00,78.0,76.0,29.85,East,84,2.0,7.0,94,0.00,,,0.12,weatherlink.com 1.10,2013-04-29 11:12:00,
2013-04-29 07:27:00,78.9,77.0,29.85,ENE,78,3.0,7.0,94,0.00,,,0.12,weatherlink.com 1.10,2013-04-29 11:27:00,
2013-04-29 07:42:00,79.8,77.0,29.86,SE,126,8.0,10.0,91,0.00,,,0.12,weatherlink.com 1.10,2013-04-29 11:42:00,
2013-04-29 07:57:00,80.7,77.0,29.87,SE,130,3.0,9.0,89,0.00,,,0.12,weatherlink.com 1.10,2013-04-29 11:57:00,
2013-04-29 08:12:00,81.7,77.0,29.87,East,101,9.0,10.0,86,0.00,,,0.12,weatherlink.com 1.10,2013-04-29 12:12:00,
2013-04-29 08:27:00,82.5,77.0,29.87,NE,34,4.0,10.0,84,0.00,,,0.12,weatherlink.com 1.10,2013-04-29 12:27:00,
2013-04-29 08:42:00,83.0,77.0,29.87,ENE,74,3.0,13.0,82,0.00,,,0.12,weatherlink.com 1.10,2013-04-29 12:42:00,
2013-04-29 08:57:00,83.5,78.0,29.87,East,101,5.0,12.0,83,0.00,,,0.12,weatherlink.com 1.10,2013-04-29 12:57:00,
2013-04-29 09:12:00,84.0,78.0,29.88,East,101,11.0,14.0,81,0.00,,,0.12,weatherlink.com 1.10,2013-04-29 13:12:00,
2013-04-29 09:27:00,84.4,78.0,29.88,East,90,9.0,15.0,80,0.00,,,0.12,weatherlink.com 1.10,2013-04-29 13:27:00,
2013-04-29 09:42:00,84.4,77.0,29.88,East,86,14.0,14.0,79,0.00,,,0.12,weatherlink.com 1.10,2013-04-29 13:42:00,
2013-04-29 09:57:00,83.9,77.0,29.88,East,96,7.0,14.0,80,0.00,,,0.12,weatherlink.com 1.10,2013-04-29 13:57:00,
2013-04-29 10:12:00,84.6,77.0,29.88,East,88,6.0,18.0,78,0.00,,,0.12,weatherlink.com 1.10,2013-04-29 14:12:00,
2013-04-29 10:27:00,85.1,77.0,29.88,ENE,78,14.0,15.0,77,0.00,,,0.12,weatherlink.com 1.10,2013-04-29 14:27:00,
2013-04-29 10:42:00,85.1,77.0,29.88,East,94,10.0,16.0,77,0.00,,,0.12,weatherlink.com 1.10,2013-04-29 14:42:00,
2013-04-29 10:57:00,86.2,77.0,29.88,NE,50,10.0,14.0,75,0.00,,,0.12,weatherlink.com 1.10,2013-04-29 14:57:00,
2013-04-29 11:12:00,86.1,77.0,29.88,ESE,103,9.0,16.0,74,0.00,,,0.12,weatherlink.com 1.10,2013-04-29 15:12:00,
2013-04-29 11:27:00,85.6,77.0,29.88,East,88,9.0,18.0,76,0.00,,,0.12,weatherlink.com 1.10,2013-04-29 15:27:00,
2013-04-29 11:42:00,86.0,77.0,29.87,ENE,58,4.0,17.0,75,0.00,,,0.12,weatherlink.com 1.10,2013-04-29 15:42:00,
2013-04-29 11:57:00,85.8,77.0,29.87,ENE,76,10.0,17.0,76,0.00,,,0.12,weatherlink.com 1.10,2013-04-29 15:57:00,
2013-04-29 12:12:00,85.6,78.0,29.87,East,83,10.0,16.0,77,0.00,,,0.12,weatherlink.com 1.10,2013-04-29 16:12:00,
2013-04-29 12:27:00,86.1,77.0,29.87,East,81,9.0,17.0,75,0.00,,,0.12,weatherlink.com 1.10,2013-04-29 16:27:00,
2013-04-29 12:42:00,86.9,77.0,29.86,ENE,78,9.0,15.0,73,0.00,,,0.12,weatherlink.com 1.10,2013-04-29 16:42:00,
2013-04-29 12:57:00,87.0,78.0,29.86,East,86,14.0,17.0,74,0.00,,,0.12,weatherlink.com 1.10,2013-04-29 16:57:00,
2013-04-29 13:12:00,86.4,78.0,29.85,East,101,5.0,19.0,75,0.00,,,0.12,weatherlink.com 1.10,2013-04-29 17:12:00,
2013-04-29 13:27:00,84.2,77.0,29.85,East,90,5.0,14.0,80,0.00,,,0.12,weatherlink.com 1.10,2013-04-29 17:27:00,
2013-04-29 13:42:00,84.6,77.0,29.84,East,90,3.0,16.0,78,0.00,,,0.12,weatherlink.com 1.10,2013-04-29 17:42:00,
2013-04-29 13:57:00,85.2,77.0,29.83,ESE,117,9.0,17.0,76,0.00,,,0.12,weatherlink.com 1.10,2013-04-29 17:57:00,
2013-04-29 14:12:00,85.4,77.0,29.82,ENE,66,10.0,15.0,76,0.00,,,0.12,weatherlink.com 1.10,2013-04-29 18:12:00,
2013-04-29 14:27:00,85.9,78.0,29.82,East,88,10.0,16.0,77,0.00,,,0.12,weatherlink.com 1.10,2013-04-29 18:27:00,
2013-04-29 14:42:00,85.0,77.0,29.82,ENE,76,11.0,17.0,77,0.00,,,0.12,weatherlink.com 1.10,2013-04-29 18:42:00,
2013-04-29 14:57:00,84.8,78.0,29.81,ENE,74,13.0,19.0,79,0.00,,,0.12,weatherlink.com 1.10,2013-04-29 18:57:00,
2013-04-29 15:12:00,82.5,78.0,29.81,ESE,109,7.0,17.0,85,0.02,,,0.14,weatherlink.com 1.10,2013-04-29 19:12:00,
2013-04-29 15:27:00,82.0,77.0,29.80,ENE,74,9.0,18.0,85,0.02,,,0.14,weatherlink.com 1.10,2013-04-29 19:27:00,
2013-04-29 15:42:00,83.0,77.0,29.80,East,94,13.0,15.0,81,0.02,,,0.14,weatherlink.com 1.10,2013-04-29 19:42:00,
2013-04-29 15:57:00,83.9,77.0,29.80,ENE,76,7.0,15.0,79,0.02,,,0.14,weatherlink.com 1.10,2013-04-29 19:57:00,
2013-04-29 16:12:00,84.7,76.0,29.80,SE,124,10.0,14.0,75,0.00,,,0.14,weatherlink.com 1.10,2013-04-29 20:12:00,
2013-04-29 16:27:00,83.7,75.0,29.79,ENE,76,7.0,16.0,74,0.00,,,0.14,weatherlink.com 1.10,2013-04-29 20:27:00,
2013-04-29 16:42:00,83.9,76.0,29.79,East,88,9.0,13.0,77,0.00,,,0.14,weatherlink.com 1.10,2013-04-29 20:42:00,
2013-04-29 16:57:00,83.2,76.0,29.79,NE,40,9.0,15.0,80,0.00,,,0.14,weatherlink.com 1.10,2013-04-29 20:57:00,
2013-04-29 17:12:00,82.9,77.0,29.79,ENE,69,12.0,16.0,81,0.00,,,0.14,weatherlink.com 1.10,2013-04-29 21:12:00,
2013-04-29 17:27:00,83.1,76.0,29.79,East,83,9.0,13.0,80,0.00,,,0.14,weatherlink.com 1.10,2013-04-29 21:27:00,
2013-04-29 17:42:00,82.9,76.0,29.79,ENE,69,7.0,15.0,79,0.00,,,0.14,weatherlink.com 1.10,2013-04-29 21:42:00,
2013-04-29 17:57:00,82.6,76.0,29.80,NE,47,8.0,12.0,80,0.00,,,0.14,weatherlink.com 1.10,2013-04-29 21:57:00,
2013-04-29 18:12:00,82.5,77.0,29.80,ENE,65,5.0,15.0,83,0.00,,,0.14,weatherlink.com 1.10,2013-04-29 22:12:00,
2013-04-29 18:27:00,82.1,77.0,29.80,NNE,24,2.0,15.0,85,0.00,,,0.14,weatherlink.com 1.10,2013-04-29 22:27:00,
2013-04-29 18:42:00,81.5,77.0,29.81,NE,46,9.0,13.0,85,0.00,,,0.14,weatherlink.com 1.10,2013-04-29 22:42:00,
2013-04-29 18:57:00,81.1,76.0,29.82,ESE,110,5.0,16.0,85,0.00,,,0.14,weatherlink.com 1.10,2013-04-29 22:57:00,
2013-04-29 19:12:00,80.8,76.0,29.82,ENE,63,9.0,12.0,85,0.00,,,0.14,weatherlink.com 1.10,2013-04-29 23:12:00,
2013-04-29 19:27:00,80.6,76.0,29.83,East,92,8.0,15.0,85,0.00,,,0.14,weatherlink.com 1.10,2013-04-29 23:27:00,
2013-04-29 19:42:00,80.6,76.0,29.83,East,82,9.0,12.0,86,0.00,,,0.14,weatherlink.com 1.10,2013-04-29 23:42:00,
2013-04-29 19:57:00,80.5,76.0,29.83,ENE,67,7.0,13.0,86,0.00,,,0.14,weatherlink.com 1.10,2013-04-29 23:57:00,
2013-04-29 20:12:00,80.5,76.0,29.84,East,82,2.0,10.0,87,0.00,,,0.14,weatherlink.com 1.10,2013-04-30 00:12:00,
2013-04-29 20:27:00,80.5,77.0,29.84,NE,54,4.0,11.0,88,0.00,,,0.14,weatherlink.com 1.10,2013-04-30 00:27:00,
2013-04-29 20:42:00,80.4,77.0,29.84,East,96,6.0,13.0,88,0.00,,,0.14,weatherlink.com 1.10,2013-04-30 00:42:00,
2013-04-29 20:57:00,80.3,77.0,29.85,ESE,105,5.0,13.0,88,0.00,,,0.14,weatherlink.com 1.10,2013-04-30 00:57:00,
2013-04-29 21:12:00,80.3,77.0,29.86,ENE,73,7.0,13.0,88,0.00,,,0.14,weatherlink.com 1.10,2013-04-30 01:12:00,
2013-04-29 21:27:00,80.5,77.0,29.86,ENE,78,5.0,9.0,88,0.00,,,0.14,weatherlink.com 1.10,2013-04-30 01:27:00,
2013-04-29 21:42:00,80.6,77.0,29.86,ESE,115,9.0,14.0,87,0.00,,,0.14,weatherlink.com 1.10,2013-04-30 01:42:00,
2013-04-29 21:57:00,80.7,77.0,29.87,NE,43,5.0,11.0,87,0.00,,,0.14,weatherlink.com 1.10,2013-04-30 01:57:00,
2013-04-29 22:12:00,80.7,77.0,29.87,ENE,63,4.0,13.0,88,0.00,,,0.14,weatherlink.com 1.10,2013-04-30 02:12:00,
2013-04-29 22:27:00,80.8,77.0,29.87,NNE,30,3.0,10.0,89,0.00,,,0.14,weatherlink.com 1.10,2013-04-30 02:27:00,
2013-04-29 22:42:00,80.9,77.0,29.87,ESE,118,9.0,11.0,88,0.00,,,0.14,weatherlink.com 1.10,2013-04-30 02:42:00,
2013-04-29 22:57:00,80.7,77.0,29.88,East,96,3.0,8.0,88,0.00,,,0.14,weatherlink.com 1.10,2013-04-30 02:57:00,
2013-04-29 23:12:00,80.8,77.0,29.87,East,80,8.0,15.0,87,0.00,,,0.14,weatherlink.com 1.10,2013-04-30 03:12:00,
2013-04-29 23:27:00,80.9,77.0,29.87,ENE,63,7.0,11.0,87,0.00,,,0.14,weatherlink.com 1.10,2013-04-30 03:27:00,
2013-04-29 23:43:00,80.7,77.0,29.86,East,89,3.0,11.0,88,0.00,,,0.14,weatherlink.com 1.10,2013-04-30 03:43:00,
2013-04-29 23:57:00,80.6,77.0,29.86,ENE,78,5.0,13.0,88,0.00,,,0.14,weatherlink.com 1.10,2013-04-30 03:57:00,